sensor_id;sensor_type;location;lat;lon;timestamp;temperature;humidity
14670;DHT22;7423;48.722;9.350;2023-03-23T00:02:13;14.60;99.90
14670;DHT22;7423;48.722;9.350;2023-03-23T00:04:39;14.60;99.90
14670;DHT22;7423;48.722;9.350;2023-03-23T00:07:08;14.60;99.90
14670;DHT22;7423;48.722;9.350;2023-03-23T00:09:34;14.60;99.90
14670;DHT22;7423;48.722;9.350;2023-03-23T00:12:00;14.60;99.90
14670;DHT22;7423;48.722;9.350;2023-03-23T00:14:32;14.60;99.90
14670;DHT22;7423;48.722;9.350;2023-03-23T00:17:10;14.50;99.90
14670;DHT22;7423;48.722;9.350;2023-03-23T00:19:39;14.50;99.90
14670;DHT22;7423;48.722;9.350;2023-03-23T00:22:12;14.50;99.90
14670;DHT22;7423;48.722;9.350;2023-03-23T00:24:39;14.50;99.90
14670;DHT22;7423;48.722;9.350;2023-03-23T00:27:05;14.50;99.90
14670;DHT22;7423;48.722;9.350;2023-03-23T00:29:31;14.60;99.90
14670;DHT22;7423;48.722;9.350;2023-03-23T00:31:57;14.60;99.90
14670;DHT22;7423;48.722;9.350;2023-03-23T00:34:24;14.60;99.90
14670;DHT22;7423;48.722;9.350;2023-03-23T00:36:53;14.60;99.90
14670;DHT22;7423;48.722;9.350;2023-03-23T00:39:24;14.60;99.90
14670;DHT22;7423;48.722;9.350;2023-03-23T00:41:52;14.60;99.90
14670;DHT22;7423;48.722;9.350;2023-03-23T00:44:20;14.60;99.90
14670;DHT22;7423;48.722;9.350;2023-03-23T00:46:49;14.60;99.90
14670;DHT22;7423;48.722;9.350;2023-03-23T00:49:17;14.60;99.90
14670;DHT22;7423;48.722;9.350;2023-03-23T00:51:45;14.60;99.90
14670;DHT22;7423;48.722;9.350;2023-03-23T00:54:11;14.60;99.90
14670;DHT22;7423;48.722;9.350;2023-03-23T00:56:37;14.60;99.90
14670;DHT22;7423;48.722;9.350;2023-03-23T00:59:06;14.50;99.90
14670;DHT22;7423;48.722;9.350;2023-03-23T01:01:32;14.50;99.90
14670;DHT22;7423;48.722;9.350;2023-03-23T01:03:59;14.50;99.90
14670;DHT22;7423;48.722;9.350;2023-03-23T01:06:30;14.60;99.90
14670;DHT22;7423;48.722;9.350;2023-03-23T01:08:58;14.60;99.90
14670;DHT22;7423;48.722;9.350;2023-03-23T01:11:24;14.60;99.90
14670;DHT22;7423;48.722;9.350;2023-03-23T01:13:51;14.60;99.90
14670;DHT22;7423;48.722;9.350;2023-03-23T01:16:17;14.60;99.90
14670;DHT22;7423;48.722;9.350;2023-03-23T01:18:43;14.60;99.90
14670;DHT22;7423;48.722;9.350;2023-03-23T01:21:13;14.60;99.90
14670;DHT22;7423;48.722;9.350;2023-03-23T01:23:43;14.60;99.90
14670;DHT22;7423;48.722;9.350;2023-03-23T01:26:12;14.50;99.90
14670;DHT22;7423;48.722;9.350;2023-03-23T01:28:40;14.50;99.90
14670;DHT22;7423;48.722;9.350;2023-03-23T01:31:08;14.50;99.90
14670;DHT22;7423;48.722;9.350;2023-03-23T01:33:38;14.50;99.90
14670;DHT22;7423;48.722;9.350;2023-03-23T01:36:07;14.40;99.90
14670;DHT22;7423;48.722;9.350;2023-03-23T01:38:43;14.50;99.90
14670;DHT22;7423;48.722;9.350;2023-03-23T01:41:10;14.40;99.90
14670;DHT22;7423;48.722;9.350;2023-03-23T01:44:03;14.40;99.90
14670;DHT22;7423;48.722;9.350;2023-03-23T01:46:34;14.40;99.90
14670;DHT22;7423;48.722;9.350;2023-03-23T01:49:11;14.20;99.90
14670;DHT22;7423;48.722;9.350;2023-03-23T01:51:49;14.50;99.90
14670;DHT22;7423;48.722;9.350;2023-03-23T01:54:22;14.50;99.90
14670;DHT22;7423;48.722;9.350;2023-03-23T01:57:01;14.50;99.90
14670;DHT22;7423;48.722;9.350;2023-03-23T01:59:29;14.50;99.90
14670;DHT22;7423;48.722;9.350;2023-03-23T02:01:55;14.60;99.90
14670;DHT22;7423;48.722;9.350;2023-03-23T02:04:23;14.60;99.90
14670;DHT22;7423;48.722;9.350;2023-03-23T02:06:51;14.60;99.90
14670;DHT22;7423;48.722;9.350;2023-03-23T02:09:17;14.60;99.90
14670;DHT22;7423;48.722;9.350;2023-03-23T02:11:45;14.60;99.90
14670;DHT22;7423;48.722;9.350;2023-03-23T02:14:12;14.50;99.90
14670;DHT22;7423;48.722;9.350;2023-03-23T02:16:44;14.50;99.90
14670;DHT22;7423;48.722;9.350;2023-03-23T02:19:19;14.60;99.90
14670;DHT22;7423;48.722;9.350;2023-03-23T02:37:08;14.60;99.90
14670;DHT22;7423;48.722;9.350;2023-03-23T02:39:50;14.60;99.90
14670;DHT22;7423;48.722;9.350;2023-03-23T02:42:24;14.60;99.90
14670;DHT22;7423;48.722;9.350;2023-03-23T02:44:57;14.60;99.90
14670;DHT22;7423;48.722;9.350;2023-03-23T02:47:27;14.70;99.90
14670;DHT22;7423;48.722;9.350;2023-03-23T02:49:56;14.50;99.90
14670;DHT22;7423;48.722;9.350;2023-03-23T02:52:27;14.50;99.90
14670;DHT22;7423;48.722;9.350;2023-03-23T02:54:56;14.50;99.90
14670;DHT22;7423;48.722;9.350;2023-03-23T02:57:25;14.50;99.90
14670;DHT22;7423;48.722;9.350;2023-03-23T02:59:53;14.50;99.90
14670;DHT22;7423;48.722;9.350;2023-03-23T03:02:25;14.60;99.90
14670;DHT22;7423;48.722;9.350;2023-03-23T03:16:27;14.50;99.90
14670;DHT22;7423;48.722;9.350;2023-03-23T03:21:33;14.50;99.90
14670;DHT22;7423;48.722;9.350;2023-03-23T03:24:03;14.50;99.90
14670;DHT22;7423;48.722;9.350;2023-03-23T03:26:31;14.50;99.90
14670;DHT22;7423;48.722;9.350;2023-03-23T03:29:00;14.50;99.90
14670;DHT22;7423;48.722;9.350;2023-03-23T03:31:33;14.60;99.90
14670;DHT22;7423;48.722;9.350;2023-03-23T03:34:03;14.50;99.90
14670;DHT22;7423;48.722;9.350;2023-03-23T03:36:31;14.50;99.90
14670;DHT22;7423;48.722;9.350;2023-03-23T03:39:07;14.40;99.90
14670;DHT22;7423;48.722;9.350;2023-03-23T03:41:36;14.40;99.90
14670;DHT22;7423;48.722;9.350;2023-03-23T03:44:06;14.50;99.90
14670;DHT22;7423;48.722;9.350;2023-03-23T03:46:36;14.50;99.90
14670;DHT22;7423;48.722;9.350;2023-03-23T03:49:04;14.50;99.90
14670;DHT22;7423;48.722;9.350;2023-03-23T03:51:33;14.60;99.90
14670;DHT22;7423;48.722;9.350;2023-03-23T03:54:01;14.60;99.90
14670;DHT22;7423;48.722;9.350;2023-03-23T03:56:27;14.60;99.90
14670;DHT22;7423;48.722;9.350;2023-03-23T03:58:53;14.60;99.90
14670;DHT22;7423;48.722;9.350;2023-03-23T04:01:21;14.60;99.90
14670;DHT22;7423;48.722;9.350;2023-03-23T04:03:51;14.50;99.90
14670;DHT22;7423;48.722;9.350;2023-03-23T04:06:17;14.60;99.90
14670;DHT22;7423;48.722;9.350;2023-03-23T04:08:44;14.50;99.90
14670;DHT22;7423;48.722;9.350;2023-03-23T04:11:13;14.60;99.90
14670;DHT22;7423;48.722;9.350;2023-03-23T04:13:40;14.50;99.90
14670;DHT22;7423;48.722;9.350;2023-03-23T04:16:06;14.50;99.90
14670;DHT22;7423;48.722;9.350;2023-03-23T04:18:33;14.50;99.90
14670;DHT22;7423;48.722;9.350;2023-03-23T04:21:01;14.60;99.90
14670;DHT22;7423;48.722;9.350;2023-03-23T04:23:29;14.60;99.90
14670;DHT22;7423;48.722;9.350;2023-03-23T04:25:56;14.60;99.90
14670;DHT22;7423;48.722;9.350;2023-03-23T04:28:26;14.40;99.90
14670;DHT22;7423;48.722;9.350;2023-03-23T04:30:54;14.40;99.90
14670;DHT22;7423;48.722;9.350;2023-03-23T04:33:21;14.40;99.90
14670;DHT22;7423;48.722;9.350;2023-03-23T04:35:51;14.40;99.90
14670;DHT22;7423;48.722;9.350;2023-03-23T04:38:19;14.40;99.90
14670;DHT22;7423;48.722;9.350;2023-03-23T04:40:47;14.40;99.90
14670;DHT22;7423;48.722;9.350;2023-03-23T04:43:17;14.50;99.90
14670;DHT22;7423;48.722;9.350;2023-03-23T04:45:52;14.40;99.90
14670;DHT22;7423;48.722;9.350;2023-03-23T04:48:26;14.50;99.90
14670;DHT22;7423;48.722;9.350;2023-03-23T04:50:53;14.50;99.90
14670;DHT22;7423;48.722;9.350;2023-03-23T04:53:19;14.40;99.90
14670;DHT22;7423;48.722;9.350;2023-03-23T04:55:46;14.40;99.90
14670;DHT22;7423;48.722;9.350;2023-03-23T04:58:13;14.40;99.90
14670;DHT22;7423;48.722;9.350;2023-03-23T05:00:40;14.40;99.90
14670;DHT22;7423;48.722;9.350;2023-03-23T05:03:10;14.40;99.90
14670;DHT22;7423;48.722;9.350;2023-03-23T05:05:36;14.50;99.90
14670;DHT22;7423;48.722;9.350;2023-03-23T05:08:03;14.50;99.90
14670;DHT22;7423;48.722;9.350;2023-03-23T05:10:29;14.50;99.90
14670;DHT22;7423;48.722;9.350;2023-03-23T05:12:54;14.50;99.90
14670;DHT22;7423;48.722;9.350;2023-03-23T05:15:20;14.50;99.90
14670;DHT22;7423;48.722;9.350;2023-03-23T05:17:46;14.50;99.90
14670;DHT22;7423;48.722;9.350;2023-03-23T05:20:15;14.50;99.90
14670;DHT22;7423;48.722;9.350;2023-03-23T05:22:46;14.50;99.90
14670;DHT22;7423;48.722;9.350;2023-03-23T05:25:17;14.50;99.90
14670;DHT22;7423;48.722;9.350;2023-03-23T05:27:45;14.50;99.90
14670;DHT22;7423;48.722;9.350;2023-03-23T05:30:15;14.50;99.90
14670;DHT22;7423;48.722;9.350;2023-03-23T05:32:43;14.50;99.90
14670;DHT22;7423;48.722;9.350;2023-03-23T05:35:11;14.40;99.90
14670;DHT22;7423;48.722;9.350;2023-03-23T05:37:37;14.50;99.90
14670;DHT22;7423;48.722;9.350;2023-03-23T05:40:05;14.50;99.90
14670;DHT22;7423;48.722;9.350;2023-03-23T05:42:33;14.50;99.90
14670;DHT22;7423;48.722;9.350;2023-03-23T05:45:00;14.50;99.90
14670;DHT22;7423;48.722;9.350;2023-03-23T05:47:29;14.50;99.90
14670;DHT22;7423;48.722;9.350;2023-03-23T05:49:56;14.50;99.90
14670;DHT22;7423;48.722;9.350;2023-03-23T05:52:22;14.50;99.90
14670;DHT22;7423;48.722;9.350;2023-03-23T05:54:49;14.50;99.90
14670;DHT22;7423;48.722;9.350;2023-03-23T05:57:15;14.60;99.90
14670;DHT22;7423;48.722;9.350;2023-03-23T05:59:41;14.50;99.90
14670;DHT22;7423;48.722;9.350;2023-03-23T06:02:07;14.60;99.90
14670;DHT22;7423;48.722;9.350;2023-03-23T06:04:33;14.60;99.90
14670;DHT22;7423;48.722;9.350;2023-03-23T06:07:02;14.60;99.90
14670;DHT22;7423;48.722;9.350;2023-03-23T06:09:28;14.60;99.90
14670;DHT22;7423;48.722;9.350;2023-03-23T06:11:54;14.60;99.90
14670;DHT22;7423;48.722;9.350;2023-03-23T06:14:19;14.60;99.90
14670;DHT22;7423;48.722;9.350;2023-03-23T06:16:46;14.60;99.90
14670;DHT22;7423;48.722;9.350;2023-03-23T06:19:13;14.60;99.90
14670;DHT22;7423;48.722;9.350;2023-03-23T06:21:40;14.60;99.90
14670;DHT22;7423;48.722;9.350;2023-03-23T06:24:06;14.60;99.90
14670;DHT22;7423;48.722;9.350;2023-03-23T06:26:37;14.70;99.90
14670;DHT22;7423;48.722;9.350;2023-03-23T06:29:05;14.70;99.90
14670;DHT22;7423;48.722;9.350;2023-03-23T06:31:39;14.70;99.90
14670;DHT22;7423;48.722;9.350;2023-03-23T06:34:07;14.70;99.90
14670;DHT22;7423;48.722;9.350;2023-03-23T06:36:35;14.80;99.90
14670;DHT22;7423;48.722;9.350;2023-03-23T06:39:02;14.80;99.90
14670;DHT22;7423;48.722;9.350;2023-03-23T06:41:34;14.80;99.90
14670;DHT22;7423;48.722;9.350;2023-03-23T06:44:01;14.80;99.90
14670;DHT22;7423;48.722;9.350;2023-03-23T06:46:27;14.80;99.90
14670;DHT22;7423;48.722;9.350;2023-03-23T06:48:54;14.90;99.90
14670;DHT22;7423;48.722;9.350;2023-03-23T06:51:20;14.90;99.90
14670;DHT22;7423;48.722;9.350;2023-03-23T06:53:46;14.90;99.90
14670;DHT22;7423;48.722;9.350;2023-03-23T06:56:12;14.90;99.90
14670;DHT22;7423;48.722;9.350;2023-03-23T06:58:39;14.90;99.90
14670;DHT22;7423;48.722;9.350;2023-03-23T07:01:07;14.90;99.90
14670;DHT22;7423;48.722;9.350;2023-03-23T07:03:33;14.90;99.90
14670;DHT22;7423;48.722;9.350;2023-03-23T07:05:59;14.90;99.90
14670;DHT22;7423;48.722;9.350;2023-03-23T07:08:25;14.90;99.90
14670;DHT22;7423;48.722;9.350;2023-03-23T07:10:52;15.00;99.90
14670;DHT22;7423;48.722;9.350;2023-03-23T07:13:19;15.00;99.90
14670;DHT22;7423;48.722;9.350;2023-03-23T07:15:45;15.00;99.90
14670;DHT22;7423;48.722;9.350;2023-03-23T07:18:11;15.10;99.90
14670;DHT22;7423;48.722;9.350;2023-03-23T07:20:37;15.10;99.90
14670;DHT22;7423;48.722;9.350;2023-03-23T07:23:03;15.10;99.90
14670;DHT22;7423;48.722;9.350;2023-03-23T07:25:32;15.10;99.90
14670;DHT22;7423;48.722;9.350;2023-03-23T07:28:02;15.10;99.90
14670;DHT22;7423;48.722;9.350;2023-03-23T07:30:29;15.20;99.90
14670;DHT22;7423;48.722;9.350;2023-03-23T07:32:56;15.20;99.90
14670;DHT22;7423;48.722;9.350;2023-03-23T07:35:23;15.20;99.90
14670;DHT22;7423;48.722;9.350;2023-03-23T07:37:50;15.20;99.90
14670;DHT22;7423;48.722;9.350;2023-03-23T07:40:18;15.20;99.90
14670;DHT22;7423;48.722;9.350;2023-03-23T07:42:45;15.20;99.90
14670;DHT22;7423;48.722;9.350;2023-03-23T07:45:16;15.20;99.90
14670;DHT22;7423;48.722;9.350;2023-03-23T07:47:42;15.20;99.90
14670;DHT22;7423;48.722;9.350;2023-03-23T07:50:08;15.30;99.90
14670;DHT22;7423;48.722;9.350;2023-03-23T07:52:35;15.30;99.90
14670;DHT22;7423;48.722;9.350;2023-03-23T07:55:02;15.30;99.90
14670;DHT22;7423;48.722;9.350;2023-03-23T07:57:30;15.30;99.90
14670;DHT22;7423;48.722;9.350;2023-03-23T07:59:56;15.30;99.90
14670;DHT22;7423;48.722;9.350;2023-03-23T08:02:23;15.30;99.90
14670;DHT22;7423;48.722;9.350;2023-03-23T08:04:50;15.30;99.90
14670;DHT22;7423;48.722;9.350;2023-03-23T08:07:17;15.30;99.90
14670;DHT22;7423;48.722;9.350;2023-03-23T08:09:45;15.40;99.90
14670;DHT22;7423;48.722;9.350;2023-03-23T08:12:12;15.40;99.90
14670;DHT22;7423;48.722;9.350;2023-03-23T08:14:39;15.40;99.90
14670;DHT22;7423;48.722;9.350;2023-03-23T08:17:07;15.40;99.90
14670;DHT22;7423;48.722;9.350;2023-03-23T08:19:35;15.40;99.90
14670;DHT22;7423;48.722;9.350;2023-03-23T08:22:03;15.40;99.90
14670;DHT22;7423;48.722;9.350;2023-03-23T08:24:30;15.40;99.90
14670;DHT22;7423;48.722;9.350;2023-03-23T08:26:58;15.50;99.90
14670;DHT22;7423;48.722;9.350;2023-03-23T08:29:25;15.50;99.90
14670;DHT22;7423;48.722;9.350;2023-03-23T08:31:51;15.50;99.90
14670;DHT22;7423;48.722;9.350;2023-03-23T08:34:17;15.60;99.90
14670;DHT22;7423;48.722;9.350;2023-03-23T08:36:43;15.60;99.90
14670;DHT22;7423;48.722;9.350;2023-03-23T08:39:12;15.70;99.90
14670;DHT22;7423;48.722;9.350;2023-03-23T08:41:40;15.70;99.90
14670;DHT22;7423;48.722;9.350;2023-03-23T08:44:06;15.80;99.90
14670;DHT22;7423;48.722;9.350;2023-03-23T08:46:33;15.80;99.90
14670;DHT22;7423;48.722;9.350;2023-03-23T08:49:00;15.80;99.90
14670;DHT22;7423;48.722;9.350;2023-03-23T08:51:26;15.80;99.90
14670;DHT22;7423;48.722;9.350;2023-03-23T08:53:52;15.90;99.90
14670;DHT22;7423;48.722;9.350;2023-03-23T08:56:18;16.10;99.90
14670;DHT22;7423;48.722;9.350;2023-03-23T08:58:43;16.20;99.90
14670;DHT22;7423;48.722;9.350;2023-03-23T09:01:09;16.30;99.90
14670;DHT22;7423;48.722;9.350;2023-03-23T09:03:36;16.30;99.90
14670;DHT22;7423;48.722;9.350;2023-03-23T09:06:05;16.30;99.90
14670;DHT22;7423;48.722;9.350;2023-03-23T09:08:33;16.40;99.90
14670;DHT22;7423;48.722;9.350;2023-03-23T09:11:05;16.40;99.90
14670;DHT22;7423;48.722;9.350;2023-03-23T09:13:37;16.50;99.90
14670;DHT22;7423;48.722;9.350;2023-03-23T09:16:05;16.50;99.90
14670;DHT22;7423;48.722;9.350;2023-03-23T09:18:32;16.60;99.90
14670;DHT22;7423;48.722;9.350;2023-03-23T09:20:59;16.50;99.90
14670;DHT22;7423;48.722;9.350;2023-03-23T09:23:25;16.60;99.90
14670;DHT22;7423;48.722;9.350;2023-03-23T09:25:52;16.60;99.90
14670;DHT22;7423;48.722;9.350;2023-03-23T09:28:19;16.60;99.90
14670;DHT22;7423;48.722;9.350;2023-03-23T09:30:45;16.70;99.90
14670;DHT22;7423;48.722;9.350;2023-03-23T09:33:13;16.70;99.90
14670;DHT22;7423;48.722;9.350;2023-03-23T09:35:40;17.80;99.90
14670;DHT22;7423;48.722;9.350;2023-03-23T09:38:08;16.80;99.90
14670;DHT22;7423;48.722;9.350;2023-03-23T09:41:08;16.80;99.90
14670;DHT22;7423;48.722;9.350;2023-03-23T09:44:13;16.90;99.90
14670;DHT22;7423;48.722;9.350;2023-03-23T09:47:28;16.90;99.90
14670;DHT22;7423;48.722;9.350;2023-03-23T09:50:13;17.00;99.90
14670;DHT22;7423;48.722;9.350;2023-03-23T09:52:49;17.10;99.90
14670;DHT22;7423;48.722;9.350;2023-03-23T09:55:19;17.20;99.90
14670;DHT22;7423;48.722;9.350;2023-03-23T09:58:05;17.30;99.90
14670;DHT22;7423;48.722;9.350;2023-03-23T10:00:47;17.30;99.90
14670;DHT22;7423;48.722;9.350;2023-03-23T10:03:21;17.20;99.90
14670;DHT22;7423;48.722;9.350;2023-03-23T10:05:53;17.20;99.90
14670;DHT22;7423;48.722;9.350;2023-03-23T10:08:26;17.20;99.90
14670;DHT22;7423;48.722;9.350;2023-03-23T10:19:32;17.40;99.90
14670;DHT22;7423;48.722;9.350;2023-03-23T10:22:09;17.40;99.90
14670;DHT22;7423;48.722;9.350;2023-03-23T10:25:00;17.30;99.90
14670;DHT22;7423;48.722;9.350;2023-03-23T10:27:38;17.20;99.90
14670;DHT22;7423;48.722;9.350;2023-03-23T10:30:21;17.40;99.90
14670;DHT22;7423;48.722;9.350;2023-03-23T10:32:56;17.50;99.90
14670;DHT22;7423;48.722;9.350;2023-03-23T10:35:29;17.50;99.90
14670;DHT22;7423;48.722;9.350;2023-03-23T10:38:14;17.60;99.90
14670;DHT22;7423;48.722;9.350;2023-03-23T10:40:52;17.60;99.90
14670;DHT22;7423;48.722;9.350;2023-03-23T10:43:21;17.70;99.90
14670;DHT22;7423;48.722;9.350;2023-03-23T10:45:56;17.80;99.90
14670;DHT22;7423;48.722;9.350;2023-03-23T10:48:30;17.70;99.90
14670;DHT22;7423;48.722;9.350;2023-03-23T10:51:00;17.60;99.90
14670;DHT22;7423;48.722;9.350;2023-03-23T10:53:44;17.70;99.90
14670;DHT22;7423;48.722;9.350;2023-03-23T10:56:28;17.70;99.90
14670;DHT22;7423;48.722;9.350;2023-03-23T10:59:12;17.70;99.90
14670;DHT22;7423;48.722;9.350;2023-03-23T11:01:55;17.70;99.90
14670;DHT22;7423;48.722;9.350;2023-03-23T11:04:22;17.80;99.90
14670;DHT22;7423;48.722;9.350;2023-03-23T11:06:51;17.90;99.90
14670;DHT22;7423;48.722;9.350;2023-03-23T11:09:20;17.90;99.90
14670;DHT22;7423;48.722;9.350;2023-03-23T11:11:53;17.80;99.90
14670;DHT22;7423;48.722;9.350;2023-03-23T11:14:29;17.90;99.90
14670;DHT22;7423;48.722;9.350;2023-03-23T11:17:02;17.90;99.90
14670;DHT22;7423;48.722;9.350;2023-03-23T11:19:32;17.90;99.90
14670;DHT22;7423;48.722;9.350;2023-03-23T11:24:42;18.00;99.90
14670;DHT22;7423;48.722;9.350;2023-03-23T11:27:10;18.00;99.90
14670;DHT22;7423;48.722;9.350;2023-03-23T11:32:15;18.00;99.90
14670;DHT22;7423;48.722;9.350;2023-03-23T11:35:00;18.10;99.90
14670;DHT22;7423;48.722;9.350;2023-03-23T11:37:41;18.10;99.90
14670;DHT22;7423;48.722;9.350;2023-03-23T11:40:27;18.20;99.90
14670;DHT22;7423;48.722;9.350;2023-03-23T11:43:00;18.10;99.90
14670;DHT22;7423;48.722;9.350;2023-03-23T11:45:37;18.20;99.90
14670;DHT22;7423;48.722;9.350;2023-03-23T11:51:30;17.90;99.90
14670;DHT22;7423;48.722;9.350;2023-03-23T11:56:46;18.10;99.90
14670;DHT22;7423;48.722;9.350;2023-03-23T11:59:30;18.30;99.90
14670;DHT22;7423;48.722;9.350;2023-03-23T12:02:12;18.30;99.90
14670;DHT22;7423;48.722;9.350;2023-03-23T12:05:19;18.30;99.90
14670;DHT22;7423;48.722;9.350;2023-03-23T12:08:02;18.30;99.90
14670;DHT22;7423;48.722;9.350;2023-03-23T12:10:46;18.30;99.90
14670;DHT22;7423;48.722;9.350;2023-03-23T12:13:33;18.30;99.90
14670;DHT22;7423;48.722;9.350;2023-03-23T12:19:01;18.40;99.90
14670;DHT22;7423;48.722;9.350;2023-03-23T12:27:22;18.50;99.90
14670;DHT22;7423;48.722;9.350;2023-03-23T12:30:17;18.40;99.90
14670;DHT22;7423;48.722;9.350;2023-03-23T12:41:35;18.50;99.90
14670;DHT22;7423;48.722;9.350;2023-03-23T12:44:10;18.40;99.90
14670;DHT22;7423;48.722;9.350;2023-03-23T12:47:09;18.20;99.90
14670;DHT22;7423;48.722;9.350;2023-03-23T12:49:54;18.30;99.90
14670;DHT22;7423;48.722;9.350;2023-03-23T12:52:35;18.30;99.90
14670;DHT22;7423;48.722;9.350;2023-03-23T12:57:56;18.40;99.90
14670;DHT22;7423;48.722;9.350;2023-03-23T13:05:49;18.50;99.90
14670;DHT22;7423;48.722;9.350;2023-03-23T13:08:31;18.50;99.90
14670;DHT22;7423;48.722;9.350;2023-03-23T13:11:04;18.50;99.90
14670;DHT22;7423;48.722;9.350;2023-03-23T13:14:07;18.50;99.90
14670;DHT22;7423;48.722;9.350;2023-03-23T13:16:54;18.50;99.90
14670;DHT22;7423;48.722;9.350;2023-03-23T13:22:23;18.70;99.90
14670;DHT22;7423;48.722;9.350;2023-03-23T13:25:01;18.60;99.90
14670;DHT22;7423;48.722;9.350;2023-03-23T13:27:32;18.60;99.90
14670;DHT22;7423;48.722;9.350;2023-03-23T13:29:58;18.60;99.90
14670;DHT22;7423;48.722;9.350;2023-03-23T13:32:38;18.70;99.90
14670;DHT22;7423;48.722;9.350;2023-03-23T13:35:12;18.70;99.90
14670;DHT22;7423;48.722;9.350;2023-03-23T13:37:49;18.80;99.90
14670;DHT22;7423;48.722;9.350;2023-03-23T13:40:28;18.80;99.90
14670;DHT22;7423;48.722;9.350;2023-03-23T13:42:58;18.90;99.90
14670;DHT22;7423;48.722;9.350;2023-03-23T13:50:54;19.10;99.90
14670;DHT22;7423;48.722;9.350;2023-03-23T13:53:28;19.00;99.90
14670;DHT22;7423;48.722;9.350;2023-03-23T13:56:20;18.90;99.90
14670;DHT22;7423;48.722;9.350;2023-03-23T13:59:08;18.90;99.90
14670;DHT22;7423;48.722;9.350;2023-03-23T14:01:55;18.90;99.90
14670;DHT22;7423;48.722;9.350;2023-03-23T14:04:30;18.80;99.90
14670;DHT22;7423;48.722;9.350;2023-03-23T14:06:57;19.00;99.90
14670;DHT22;7423;48.722;9.350;2023-03-23T14:09:39;19.00;99.90
14670;DHT22;7423;48.722;9.350;2023-03-23T14:12:21;19.10;99.90
14670;DHT22;7423;48.722;9.350;2023-03-23T14:15:02;19.00;99.90
14670;DHT22;7423;48.722;9.350;2023-03-23T14:17:33;19.10;99.90
14670;DHT22;7423;48.722;9.350;2023-03-23T14:20:19;19.20;99.90
14670;DHT22;7423;48.722;9.350;2023-03-23T14:22:53;19.00;99.90
14670;DHT22;7423;48.722;9.350;2023-03-23T14:25:21;19.00;99.90
14670;DHT22;7423;48.722;9.350;2023-03-23T14:27:51;19.00;99.90
14670;DHT22;7423;48.722;9.350;2023-03-23T14:30:20;18.90;99.80
14670;DHT22;7423;48.722;9.350;2023-03-23T14:32:47;19.00;99.80
14670;DHT22;7423;48.722;9.350;2023-03-23T14:35:29;18.90;99.50
14670;DHT22;7423;48.722;9.350;2023-03-23T14:37:56;18.90;99.40
14670;DHT22;7423;48.722;9.350;2023-03-23T14:40:26;18.90;99.60
14670;DHT22;7423;48.722;9.350;2023-03-23T14:42:53;19.00;99.60
14670;DHT22;7423;48.722;9.350;2023-03-23T14:45:21;19.00;99.40
14670;DHT22;7423;48.722;9.350;2023-03-23T14:50:40;18.90;99.30
14670;DHT22;7423;48.722;9.350;2023-03-23T14:53:21;18.90;99.10
14670;DHT22;7423;48.722;9.350;2023-03-23T14:55:54;18.60;99.30
14670;DHT22;7423;48.722;9.350;2023-03-23T14:58:22;18.90;99.10
14670;DHT22;7423;48.722;9.350;2023-03-23T15:00:54;18.90;99.00
14670;DHT22;7423;48.722;9.350;2023-03-23T15:03:25;19.00;98.80
14670;DHT22;7423;48.722;9.350;2023-03-23T15:05:55;19.00;98.80
14670;DHT22;7423;48.722;9.350;2023-03-23T15:08:28;18.90;99.00
14670;DHT22;7423;48.722;9.350;2023-03-23T15:13:52;19.00;98.80
14670;DHT22;7423;48.722;9.350;2023-03-23T15:16:27;18.80;98.80
14670;DHT22;7423;48.722;9.350;2023-03-23T15:21:35;18.80;98.60
14670;DHT22;7423;48.722;9.350;2023-03-23T15:24:38;18.80;99.00
14670;DHT22;7423;48.722;9.350;2023-03-23T15:27:17;19.00;98.60
14670;DHT22;7423;48.722;9.350;2023-03-23T15:30:11;19.20;98.30
14670;DHT22;7423;48.722;9.350;2023-03-23T15:33:06;19.10;98.10
14670;DHT22;7423;48.722;9.350;2023-03-23T15:35:38;19.10;98.10
14670;DHT22;7423;48.722;9.350;2023-03-23T15:38:16;19.10;98.00
14670;DHT22;7423;48.722;9.350;2023-03-23T15:40:45;19.20;98.10
14670;DHT22;7423;48.722;9.350;2023-03-23T15:43:16;19.10;98.00
14670;DHT22;7423;48.722;9.350;2023-03-23T15:45:57;19.10;98.20
14670;DHT22;7423;48.722;9.350;2023-03-23T15:48:54;19.10;98.40
14670;DHT22;7423;48.722;9.350;2023-03-23T15:51:32;19.20;98.40
14670;DHT22;7423;48.722;9.350;2023-03-23T15:53:59;19.10;98.30
14670;DHT22;7423;48.722;9.350;2023-03-23T15:56:25;19.20;98.40
14670;DHT22;7423;48.722;9.350;2023-03-23T15:58:52;19.20;98.40
14670;DHT22;7423;48.722;9.350;2023-03-23T16:01:24;19.20;98.30
14670;DHT22;7423;48.722;9.350;2023-03-23T16:04:08;19.10;98.30
14670;DHT22;7423;48.722;9.350;2023-03-23T16:06:37;19.10;98.40
14670;DHT22;7423;48.722;9.350;2023-03-23T16:09:05;19.10;98.00
14670;DHT22;7423;48.722;9.350;2023-03-23T16:11:33;19.00;98.30
14670;DHT22;7423;48.722;9.350;2023-03-23T16:14:00;19.00;98.40
14670;DHT22;7423;48.722;9.350;2023-03-23T16:16:41;19.10;98.20
14670;DHT22;7423;48.722;9.350;2023-03-23T16:19:14;19.10;98.20
14670;DHT22;7423;48.722;9.350;2023-03-23T16:21:42;19.10;98.40
14670;DHT22;7423;48.722;9.350;2023-03-23T16:24:09;19.00;98.30
14670;DHT22;7423;48.722;9.350;2023-03-23T16:26:36;18.80;98.70
14670;DHT22;7423;48.722;9.350;2023-03-23T16:29:13;18.80;98.70
14670;DHT22;7423;48.722;9.350;2023-03-23T16:32:01;19.00;98.60
14670;DHT22;7423;48.722;9.350;2023-03-23T16:34:28;18.90;98.60
14670;DHT22;7423;48.722;9.350;2023-03-23T16:36:58;18.90;98.60
14670;DHT22;7423;48.722;9.350;2023-03-23T16:39:25;18.80;98.70
14670;DHT22;7423;48.722;9.350;2023-03-23T16:41:52;18.90;98.70
14670;DHT22;7423;48.722;9.350;2023-03-23T16:44:19;18.70;98.70
14670;DHT22;7423;48.722;9.350;2023-03-23T16:46:46;18.90;98.80
14670;DHT22;7423;48.722;9.350;2023-03-23T16:49:12;18.90;98.80
14670;DHT22;7423;48.722;9.350;2023-03-23T16:51:39;19.00;98.70
14670;DHT22;7423;48.722;9.350;2023-03-23T16:54:09;19.00;98.70
14670;DHT22;7423;48.722;9.350;2023-03-23T16:56:37;19.00;98.80
14670;DHT22;7423;48.722;9.350;2023-03-23T16:59:04;19.00;98.80
14670;DHT22;7423;48.722;9.350;2023-03-23T17:01:31;19.00;98.80
14670;DHT22;7423;48.722;9.350;2023-03-23T17:03:58;19.00;98.80
14670;DHT22;7423;48.722;9.350;2023-03-23T17:06:25;19.00;98.70
14670;DHT22;7423;48.722;9.350;2023-03-23T17:08:51;19.00;98.90
14670;DHT22;7423;48.722;9.350;2023-03-23T17:11:18;19.00;98.80
14670;DHT22;7423;48.722;9.350;2023-03-23T17:13:45;18.90;98.80
14670;DHT22;7423;48.722;9.350;2023-03-23T17:16:13;18.90;98.90
14670;DHT22;7423;48.722;9.350;2023-03-23T17:18:41;18.90;98.90
14670;DHT22;7423;48.722;9.350;2023-03-23T17:21:07;18.90;99.00
14670;DHT22;7423;48.722;9.350;2023-03-23T17:23:34;19.00;99.00
14670;DHT22;7423;48.722;9.350;2023-03-23T17:26:01;19.00;98.90
14670;DHT22;7423;48.722;9.350;2023-03-23T17:28:29;18.90;99.00
14670;DHT22;7423;48.722;9.350;2023-03-23T17:30:56;19.00;99.00
14670;DHT22;7423;48.722;9.350;2023-03-23T17:33:23;18.90;99.00
14670;DHT22;7423;48.722;9.350;2023-03-23T17:35:50;18.80;99.30
14670;DHT22;7423;48.722;9.350;2023-03-23T17:38:18;18.70;99.30
14670;DHT22;7423;48.722;9.350;2023-03-23T17:40:45;18.70;99.40
14670;DHT22;7423;48.722;9.350;2023-03-23T17:43:11;18.80;99.40